Bastrop, Texas
Current Conditions -  °F | °C
As of 8:15 AM on Sunday 23 Nov 2014 (Local Time) from KGYB Reporting Station
Clear Clear  
Wind Chill: 58°   Ceiling: Unl
Heat Index: 58°   Visibility: 10mi
Dew Point: 57°   Wind: 3mph
Humidity: 97%   Direction: 220°SW
Pressure: 29.71"   Gusts: NA
Location:  30.11°N, 97.32°W
Report Text: KGYB 231415Z AUTO 22003KT 10SM CLR 14/14 A2971 RMK AO2 T01430138
Loading
Personal Weather Stations






























Interactive Weather Map New forecast layout! Learn more

10-Day Weather Forecast

Advertisements
Track Severe Weather on mobile